Time;durP1;ratioP1;P1;durP2;ratioP2;P2;SDS_P1;SDS_P2;PMS_P1;PMS_P2;Temp;Humidity;BMP_temperature;BMP_pressure;BME280_temperature;BME280_humidity;BME280_pressure;Samples;Min_cycle;Max_cycle;Signal;HPM_P1;HPM_P2
2023/05/22 00:01:00;;;;;;;32.85;29.65;;;18.00;99.90;;;;;;7361013;19;20521;-68
2023/05/22 00:03:28;;;;;;;34.90;31.08;;;18.00;99.90;;;;;;7367146;19;20423;-68
2023/05/22 00:05:57;;;;;;;35.97;32.17;;;18.00;99.90;;;;;;7374287;19;20114;-67
2023/05/22 00:08:27;;;;;;;36.17;32.70;;;18.00;99.90;;;;;;7373365;19;20412;-68
2023/05/22 00:10:54;;;;;;;34.70;31.33;;;18.00;99.90;;;;;;7377824;19;20015;-67
2023/05/22 00:13:20;;;;;;;35.80;32.25;;;17.90;99.90;;;;;;7380037;19;20031;-68
2023/05/22 00:15:47;;;;;;;40.92;36.92;;;17.80;99.90;;;;;;7388408;19;20025;-65
2023/05/22 00:18:13;;;;;;;38.75;34.85;;;17.80;99.90;;;;;;7378445;19;20473;-67
2023/05/22 00:20:41;;;;;;;43.13;37.67;;;17.80;99.90;;;;;;7371336;19;20018;-69
2023/05/22 00:23:09;;;;;;;41.83;37.67;;;17.80;99.90;;;;;;7369141;19;20043;-67
2023/05/22 00:25:36;;;;;;;42.42;38.22;;;17.80;99.90;;;;;;7366217;19;20026;-67
2023/05/22 00:28:03;;;;;;;41.65;37.58;;;17.70;99.90;;;;;;7365539;19;20018;-67
2023/05/22 00:30:30;;;;;;;43.70;39.25;;;17.70;99.90;;;;;;7361331;19;20565;-68
2023/05/22 00:32:58;;;;;;;44.97;40.33;;;17.70;99.90;;;;;;7367572;19;20014;-68
2023/05/22 00:35:27;;;;;;;45.17;40.33;;;17.80;99.90;;;;;;7370271;19;20627;-67
2023/05/22 00:37:54;;;;;;;42.90;38.65;;;17.70;99.90;;;;;;7374176;19;20026;-68
2023/05/22 00:40:21;;;;;;;45.45;40.50;;;17.70;99.90;;;;;;7376160;19;20373;-68
2023/05/22 00:42:47;;;;;;;45.58;40.85;;;17.70;99.90;;;;;;7360235;19;20019;-68
2023/05/22 00:45:17;;;;;;;48.80;43.50;;;17.70;99.90;;;;;;7363295;19;20477;-68
2023/05/22 00:47:43;;;;;;;47.17;41.92;;;17.70;99.90;;;;;;7376361;19;20045;-67
2023/05/22 00:50:11;;;;;;;44.58;40.15;;;17.60;99.90;;;;;;7375270;19;20023;-67
2023/05/22 00:52:42;;;;;;;44.33;40.00;;;17.60;99.90;;;;;;7375005;19;20038;-67
2023/05/22 00:55:10;;;;;;;45.33;40.85;;;17.60;99.90;;;;;;7372547;19;20054;-66
2023/05/22 00:57:40;;;;;;;47.22;42.75;;;17.60;99.90;;;;;;7372318;19;20489;-68
2023/05/22 01:00:13;;;;;;;47.05;42.38;;;17.60;99.90;;;;;;7375837;19;20051;-68
2023/05/22 01:02:41;;;;;;;46.47;42.10;;;17.60;99.90;;;;;;7372867;19;20496;-67
2023/05/22 01:05:11;;;;;;;50.90;45.75;;;17.60;99.90;;;;;;7374087;19;20747;-67
2023/05/22 01:07:38;;;;;;;46.67;42.15;;;17.60;99.90;;;;;;7376100;19;20014;-68
2023/05/22 01:10:05;;;;;;;46.15;41.75;;;17.60;99.90;;;;;;7373433;19;20011;-68
2023/05/22 01:12:41;;;;;;;45.17;40.53;;;17.60;99.90;;;;;;7373653;19;20565;-68
2023/05/22 01:15:36;;;;;;;46.47;41.90;;;17.60;99.90;;;;;;7374605;19;20018;-68
2023/05/22 01:18:32;;;;;;;48.28;43.50;;;17.50;99.90;;;;;;7374397;19;20019;-60
2023/05/22 01:21:31;;;;;;;45.63;41.10;;;17.50;99.90;;;;;;7372600;19;20046;-60
2023/05/22 01:24:36;;;;;;;47.30;42.45;;;17.50;99.90;;;;;;7354320;19;20017;-60
2023/05/22 01:27:24;;;;;;;;;;;17.50;99.90;;;;;;7355200;19;20035;-60
2023/05/22 01:30:15;;;;;;;45.85;41.10;;;17.40;99.90;;;;;;7358995;19;19925;-60
2023/05/22 01:32:45;;;;;;;47.40;42.70;;;17.40;99.90;;;;;;7354875;19;20862;-59
2023/05/22 01:35:15;;;;;;;50.42;45.40;;;17.40;99.90;;;;;;7359433;19;20015;-60
2023/05/22 01:37:42;;;;;;;46.55;42.03;;;17.40;99.90;;;;;;7370423;19;20019;-59
2023/05/22 01:40:10;;;;;;;47.33;42.67;;;17.40;99.90;;;;;;7372719;19;20021;-67
2023/05/22 01:42:40;;;;;;;50.25;45.13;;;17.40;99.90;;;;;;7370709;19;20018;-61
2023/05/22 01:45:10;;;;;;;48.65;43.55;;;17.40;99.90;;;;;;7371523;19;20032;-68
2023/05/22 01:47:37;;;;;;;48.80;43.85;;;17.30;99.90;;;;;;7372587;19;20026;-67
2023/05/22 01:50:04;;;;;;;48.47;43.72;;;17.30;99.90;;;;;;7374730;19;20098;-68
2023/05/22 01:52:56;;;;;;;50.05;45.10;;;17.30;99.90;;;;;;7374357;19;20364;-67
2023/05/22 01:55:39;;;;;;;50.92;45.88;;;17.30;99.90;;;;;;7372242;19;20022;-67
2023/05/22 01:58:30;;;;;;;48.30;43.55;;;17.20;99.90;;;;;;7372849;19;20022;-60
2023/05/22 02:00:59;;;;;;;47.22;42.80;;;17.20;99.90;;;;;;7374402;19;20014;-60
2023/05/22 02:03:30;;;;;;;47.42;42.92;;;17.20;99.90;;;;;;7369999;19;20014;-60
2023/05/22 02:06:00;;;;;;;51.47;46.13;;;17.20;99.90;;;;;;7372721;19;20022;-60
2023/05/22 02:08:30;;;;;;;49.42;44.50;;;17.10;99.90;;;;;;7368883;19;20027;-60
2023/05/22 02:10:58;;;;;;;52.10;46.90;;;17.10;99.90;;;;;;7354127;19;20504;-60
2023/05/22 02:13:25;;;;;;;46.38;41.78;;;17.20;99.90;;;;;;7361117;19;20051;-60
2023/05/22 02:15:51;;;;;;;47.33;42.60;;;17.20;99.90;;;;;;7371826;19;20023;-60
2023/05/22 02:18:18;;;;;;;48.60;43.58;;;17.20;99.90;;;;;;7372956;19;20018;-60
2023/05/22 02:20:46;;;;;;;49.53;44.33;;;17.20;99.90;;;;;;7371748;19;20018;-60
2023/05/22 02:23:15;;;;;;;46.13;41.75;;;17.20;99.90;;;;;;7374177;19;20018;-60
2023/05/22 02:25:42;;;;;;;47.78;43.05;;;17.20;99.90;;;;;;7368396;19;20042;-61
2023/05/22 02:28:09;;;;;;;47.38;42.60;;;17.10;99.90;;;;;;7378065;19;20019;-61
2023/05/22 02:30:35;;;;;;;46.17;41.40;;;17.10;99.90;;;;;;7370875;19;20444;-60
2023/05/22 02:33:04;;;;;;;46.20;41.70;;;17.10;99.90;;;;;;7373179;19;20018;-60
2023/05/22 02:35:32;;;;;;;53.10;47.50;;;17.10;99.90;;;;;;7372870;19;20711;-60
2023/05/22 02:38:05;;;;;;;47.83;42.88;;;17.20;99.90;;;;;;7375339;19;20063;-60
2023/05/22 02:40:32;;;;;;;45.60;40.92;;;17.10;99.90;;;;;;7369886;19;20507;-60
2023/05/22 02:42:58;;;;;;;46.05;41.55;;;17.20;99.90;;;;;;7374322;19;20496;-60
2023/05/22 02:45:26;;;;;;;46.72;42.00;;;17.20;99.90;;;;;;7357923;19;20028;-60
2023/05/22 02:47:52;;;;;;;46.17;41.53;;;17.10;99.90;;;;;;7357325;19;20014;-67
2023/05/22 02:50:18;;;;;;;47.47;42.67;;;17.10;99.90;;;;;;7354201;19;20082;-60
2023/05/22 02:52:45;;;;;;;45.67;41.00;;;17.10;99.90;;;;;;7362526;19;20538;-68
2023/05/22 02:55:11;;;;;;;48.20;43.40;;;17.10;99.90;;;;;;7369602;19;20474;-67
2023/05/22 02:57:38;;;;;;;45.92;41.47;;;17.00;99.90;;;;;;7372650;19;20479;-68
2023/05/22 03:00:10;;;;;;;46.20;41.88;;;17.00;99.90;;;;;;7372465;19;20871;-61
2023/05/22 03:02:37;;;;;;;48.47;43.83;;;17.00;99.90;;;;;;7374086;19;20033;-61
2023/05/22 03:05:05;;;;;;;49.97;44.88;;;17.00;99.90;;;;;;7369766;19;20561;-67
2023/05/22 03:07:33;;;;;;;47.28;42.72;;;17.00;99.90;;;;;;7370901;19;20727;-68
2023/05/22 03:09:59;;;;;;;46.92;42.13;;;17.00;99.90;;;;;;7376909;19;20441;-60
2023/05/22 03:12:26;;;;;;;45.00;40.45;;;16.90;99.90;;;;;;7375089;19;20411;-68
2023/05/22 03:14:52;;;;;;;49.50;44.60;;;16.90;99.90;;;;;;7374526;19;20022;-67
2023/05/22 03:17:18;;;;;;;49.15;44.13;;;17.00;99.90;;;;;;7375605;19;20019;-67
2023/05/22 03:19:46;;;;;;;48.08;43.17;;;16.90;99.90;;;;;;7377233;19;20015;-67
2023/05/22 03:22:12;;;;;;;48.45;43.63;;;16.90;99.90;;;;;;7377722;19;20526;-68
2023/05/22 03:24:39;;;;;;;46.70;41.97;;;17.00;99.90;;;;;;7370938;19;20018;-62
2023/05/22 03:27:06;;;;;;;44.90;40.30;;;17.00;99.90;;;;;;7369347;19;20461;-60
2023/05/22 03:29:38;;;;;;;;;;;16.90;99.90;;;;;;7373602;19;20026;-60
2023/05/22 03:32:04;;;;;;;42.53;38.53;;;17.00;99.90;;;;;;7373554;19;20385;-60
2023/05/22 03:34:31;;;;;;;43.40;39.17;;;16.90;99.90;;;;;;7371073;19;20026;-61
2023/05/22 03:36:59;;;;;;;47.53;43.05;;;17.00;99.90;;;;;;7368469;19;20125;-61
2023/05/22 03:39:25;;;;;;;44.70;40.38;;;17.00;99.90;;;;;;7363858;19;20028;-61
2023/05/22 03:42:07;;;;;;;;;;;17.00;99.90;;;;;;7360771;19;20470;-60
2023/05/22 03:44:34;;;;;;;45.05;40.60;;;17.00;99.90;;;;;;7367673;19;20033;-60
2023/05/22 03:47:00;;;;;;;45.53;40.72;;;17.00;99.90;;;;;;7364977;19;20096;-59
2023/05/22 03:49:27;;;;;;;48.50;42.70;;;17.00;99.90;;;;;;7371782;19;20033;-66
2023/05/22 03:51:53;;;;;;;41.67;37.50;;;17.00;99.90;;;;;;7376086;19;20086;-67
2023/05/22 03:54:21;;;;;;;43.83;39.58;;;16.90;99.90;;;;;;7376004;19;20018;-66
2023/05/22 03:56:48;;;;;;;48.03;43.10;;;17.00;99.90;;;;;;7374630;19;20604;-66
2023/05/22 03:59:15;;;;;;;46.00;41.67;;;17.00;99.90;;;;;;7374736;19;20049;-66
2023/05/22 04:01:42;;;;;;;45.97;41.72;;;17.00;99.90;;;;;;7370793;19;20085;-60
2023/05/22 04:04:11;;;;;;;47.47;42.53;;;17.10;99.90;;;;;;7370401;19;20031;-66
2023/05/22 04:06:41;;;;;;;48.97;43.72;;;17.00;99.90;;;;;;7366936;19;20018;-61
2023/05/22 04:09:11;;;;;;;47.88;43.08;;;17.00;99.90;;;;;;7361826;19;20497;-60
2023/05/22 04:11:38;;;;;;;45.75;41.33;;;17.00;99.90;;;;;;7368656;19;20042;-61
2023/05/22 04:14:05;;;;;;;49.10;44.08;;;17.00;99.90;;;;;;7376248;19;20417;-60
2023/05/22 04:16:32;;;;;;;46.10;41.47;;;17.00;99.90;;;;;;7376753;19;20619;-60
2023/05/22 04:19:00;;;;;;;45.80;41.08;;;16.90;99.90;;;;;;7379440;19;20043;-60
2023/05/22 04:21:27;;;;;;;46.10;41.70;;;16.90;99.90;;;;;;7376965;19;20023;-59
2023/05/22 04:23:53;;;;;;;47.30;42.70;;;16.90;99.90;;;;;;7373806;19;20022;-60
2023/05/22 04:26:19;;;;;;;46.75;42.05;;;17.00;99.90;;;;;;7371569;19;20019;-60
2023/05/22 04:28:48;;;;;;;45.45;40.75;;;17.00;99.90;;;;;;7372189;19;20018;-60
2023/05/22 04:31:14;;;;;;;43.20;39.15;;;16.90;99.90;;;;;;7378208;19;20019;-61
2023/05/22 04:33:43;;;;;;;44.58;40.10;;;17.00;99.90;;;;;;7369826;19;20022;-60
2023/05/22 04:36:10;;;;;;;44.25;39.95;;;17.00;99.90;;;;;;7381175;19;20025;-67
2023/05/22 04:38:36;;;;;;;46.53;42.08;;;17.00;99.90;;;;;;7373058;19;20022;-67
2023/05/22 04:41:07;;;;;;;44.85;40.35;;;17.00;99.90;;;;;;7374346;19;20014;-67
2023/05/22 04:43:37;;;;;;;43.50;39.33;;;17.10;99.90;;;;;;7376439;19;20026;-66
2023/05/22 04:46:03;;;;;;;44.63;40.40;;;17.10;99.90;;;;;;7374307;19;20086;-67
2023/05/22 04:48:37;;;;;;;43.53;39.38;;;17.10;99.90;;;;;;7377154;19;20444;-67
2023/05/22 04:51:05;;;;;;;42.47;38.35;;;17.00;99.90;;;;;;7379779;19;20019;-66
2023/05/22 04:53:32;;;;;;;44.60;40.40;;;17.10;99.90;;;;;;7380239;19;20362;-66
2023/05/22 04:55:59;;;;;;;40.47;36.65;;;17.10;99.90;;;;;;7375088;19;20018;-66
2023/05/22 04:58:28;;;;;;;43.17;39.05;;;17.10;99.90;;;;;;7383838;19;20368;-66
2023/05/22 05:00:56;;;;;;;42.72;38.85;;;17.00;99.90;;;;;;7380908;19;20600;-66
2023/05/22 05:03:27;;;;;;;43.35;39.47;;;17.00;99.90;;;;;;7370398;19;20018;-66
2023/05/22 05:05:53;;;;;;;41.13;37.38;;;17.00;99.90;;;;;;7376274;19;20562;-66
2023/05/22 05:08:20;;;;;;;42.97;38.88;;;17.00;99.90;;;;;;7374967;19;20053;-66
2023/05/22 05:10:46;;;;;;;41.55;37.40;;;17.00;99.90;;;;;;7368097;19;20021;-66
2023/05/22 05:13:13;;;;;;;42.13;37.80;;;17.00;99.90;;;;;;7359948;19;20029;-66
2023/05/22 05:15:42;;;;;;;41.10;37.10;;;17.00;99.90;;;;;;7362354;19;20461;-67
2023/05/22 05:18:08;;;;;;;40.50;36.70;;;17.00;99.90;;;;;;7360838;19;20014;-66
2023/05/22 05:20:35;;;;;;;43.15;38.83;;;17.00;99.90;;;;;;7361813;19;20366;-67
2023/05/22 05:23:01;;;;;;;39.60;35.83;;;17.00;99.90;;;;;;7360258;19;20018;-67
2023/05/22 05:25:27;;;;;;;40.95;36.90;;;17.00;99.90;;;;;;7362375;19;20025;-67
2023/05/22 05:27:55;;;;;;;39.17;35.53;;;17.00;99.90;;;;;;7367050;19;20025;-66
2023/05/22 05:30:24;;;;;;;38.53;34.95;;;17.10;99.90;;;;;;7368243;19;20499;-67
2023/05/22 05:33:04;;;;;;;37.60;34.17;;;17.00;99.90;;;;;;7378259;19;20018;-66
2023/05/22 05:35:57;;;;;;;39.33;35.63;;;17.00;99.90;;;;;;7379880;19;20031;-66
2023/05/22 05:38:24;;;;;;;37.45;33.88;;;17.00;99.90;;;;;;7377175;19;20486;-69
2023/05/22 05:40:51;;;;;;;39.88;35.92;;;17.00;99.90;;;;;;7374034;19;20010;-68
2023/05/22 05:43:19;;;;;;;42.00;37.70;;;17.10;99.90;;;;;;7374841;19;20566;-67
2023/05/22 05:45:46;;;;;;;44.10;39.95;;;17.10;99.90;;;;;;7376052;19;20053;-67
2023/05/22 05:48:12;;;;;;;41.20;37.35;;;17.10;99.90;;;;;;7375195;19;20519;-67
2023/05/22 05:50:42;;;;;;;37.17;33.83;;;17.10;99.90;;;;;;7376588;19;20010;-67
2023/05/22 05:53:09;;;;;;;40.08;36.40;;;17.10;99.90;;;;;;7375745;19;20046;-67
2023/05/22 05:55:35;;;;;;;39.78;36.03;;;17.10;99.90;;;;;;7377617;19;20470;-67
2023/05/22 05:58:03;;;;;;;37.58;33.95;;;17.10;99.90;;;;;;7373559;19;20530;-66
2023/05/22 06:00:41;;;;;;;40.88;37.10;;;17.10;99.90;;;;;;7374633;19;20018;-66
2023/05/22 06:03:07;;;;;;;39.05;35.50;;;17.10;99.90;;;;;;7373397;19;20039;-61
2023/05/22 06:05:56;;;;;;;37.63;34.13;;;17.10;99.90;;;;;;7367431;19;20370;-62
2023/05/22 06:08:43;;;;;;;41.15;37.13;;;17.10;99.90;;;;;;7371043;19;20018;-61
2023/05/22 06:11:10;;;;;;;40.17;36.28;;;17.20;99.90;;;;;;7372415;19;20011;-62
2023/05/22 06:13:48;;;;;;;46.97;42.55;;;17.20;99.90;;;;;;7367113;19;20038;-61
2023/05/22 06:16:14;;;;;;;41.03;36.95;;;17.20;99.90;;;;;;7374567;19;20030;-67
2023/05/22 06:18:40;;;;;;;41.22;37.40;;;17.20;99.90;;;;;;7351275;19;21026;-68
2023/05/22 06:21:07;;;;;;;45.50;41.20;;;17.20;99.90;;;;;;7364613;19;20612;-68
2023/05/22 06:23:34;;;;;;;37.08;33.20;;;17.10;99.90;;;;;;7361009;19;20351;-61
2023/05/22 06:26:01;;;;;;;40.45;36.35;;;17.20;99.90;;;;;;7372306;19;20584;-62
2023/05/22 06:28:27;;;;;;;37.30;33.83;;;17.20;99.90;;;;;;7373222;19;20014;-67
2023/05/22 06:30:56;;;;;;;43.70;39.55;;;17.30;99.90;;;;;;7375353;19;20035;-68
2023/05/22 06:33:23;;;;;;;38.28;34.50;;;17.30;99.90;;;;;;7376508;19;20022;-68
2023/05/22 06:35:49;;;;;;;43.35;39.20;;;17.40;99.90;;;;;;7375027;19;20610;-68
2023/05/22 06:38:16;;;;;;;42.85;38.80;;;17.40;99.90;;;;;;7378494;19;20292;-68
2023/05/22 06:40:43;;;;;;;48.83;44.38;;;17.50;99.90;;;;;;7372294;19;20018;-62
2023/05/22 06:43:15;;;;;;;43.72;39.42;;;17.60;99.90;;;;;;7375604;19;20041;-62
2023/05/22 06:46:05;;;;;;;36.88;33.53;;;17.70;99.90;;;;;;7376817;19;20022;-68
2023/05/22 06:48:44;;;;;;;35.42;32.03;;;17.80;99.90;;;;;;7374845;19;20039;-68
2023/05/22 06:51:23;;;;;;;32.80;29.88;;;17.80;99.90;;;;;;7372589;19;20052;-62
2023/05/22 06:53:57;;;;;;;36.53;33.00;;;17.90;99.90;;;;;;7368755;19;20379;-61
2023/05/22 06:56:35;;;;;;;34.50;30.58;;;17.90;99.90;;;;;;7371440;19;20490;-62
2023/05/22 06:59:11;;;;;;;32.00;28.65;;;18.00;99.90;;;;;;7369099;19;20022;-61
2023/05/22 07:01:56;;;;;;;38.22;34.45;;;18.20;99.90;;;;;;7373283;19;21284;-68
2023/05/22 07:04:34;;;;;;;33.05;29.88;;;18.30;99.90;;;;;;7372676;19;20010;-68
2023/05/22 07:07:05;;;;;;;32.33;29.27;;;18.60;99.90;;;;;;7368393;19;20510;-61
2023/05/22 07:09:33;;;;;;;33.95;30.73;;;18.50;99.90;;;;;;7367457;19;20388;-62
2023/05/22 07:12:02;;;;;;;28.42;25.58;;;18.50;99.90;;;;;;7372549;19;20022;-68
2023/05/22 07:14:31;;;;;;;31.25;28.27;;;18.50;99.90;;;;;;7372320;19;20026;-67
2023/05/22 07:16:57;;;;;;;30.55;27.42;;;18.50;99.90;;;;;;7376284;19;20082;-62
2023/05/22 07:19:27;;;;;;;27.52;24.73;;;18.40;99.90;;;;;;7367307;19;20015;-61
2023/05/22 07:21:58;;;;;;;31.67;28.55;;;18.50;99.90;;;;;;7369802;19;20593;-66
2023/05/22 07:24:25;;;;;;;27.42;24.73;;;18.40;99.90;;;;;;7375224;19;20018;-66
2023/05/22 07:26:52;;;;;;;38.70;35.03;;;18.30;99.90;;;;;;7379221;19;20014;-67
2023/05/22 07:29:18;;;;;;;33.33;30.02;;;18.30;99.90;;;;;;7375062;19;20021;-67
2023/05/22 07:31:49;;;;;;;34.72;31.13;;;18.20;99.90;;;;;;7378363;19;20018;-67
2023/05/22 07:34:15;;;;;;;26.77;24.10;;;18.20;99.90;;;;;;7381413;19;20019;-67
2023/05/22 07:36:43;;;;;;;29.63;26.58;;;18.10;99.90;;;;;;7378006;19;20039;-66
2023/05/22 07:39:09;;;;;;;33.65;30.38;;;18.20;99.90;;;;;;7378653;19;20035;-65
2023/05/22 07:41:39;;;;;;;25.10;22.70;;;18.20;99.90;;;;;;7366893;19;20035;-65
2023/05/22 07:44:08;;;;;;;27.88;25.02;;;18.20;99.90;;;;;;7375763;19;20122;-65
2023/05/22 07:46:37;;;;;;;29.40;26.38;;;18.10;99.90;;;;;;7373225;19;20629;-66
2023/05/22 07:49:10;;;;;;;27.25;24.45;;;18.10;99.90;;;;;;7375870;19;20022;-66
2023/05/22 07:51:39;;;;;;;23.25;21.05;;;18.20;99.90;;;;;;7373886;19;20467;-66
2023/05/22 07:54:07;;;;;;;23.20;21.02;;;18.10;99.90;;;;;;7372541;19;20015;-66
2023/05/22 07:56:39;;;;;;;22.42;20.35;;;18.10;99.90;;;;;;7373525;19;20485;-66
2023/05/22 07:59:06;;;;;;;23.33;20.98;;;18.10;99.90;;;;;;7367126;19;20023;-66
2023/05/22 08:01:32;;;;;;;22.10;19.90;;;18.10;99.90;;;;;;7370870;19;20018;-67
2023/05/22 08:03:58;;;;;;;24.55;21.63;;;18.00;99.90;;;;;;7375441;19;20478;-67
2023/05/22 08:06:25;;;;;;;22.10;19.83;;;18.00;99.90;;;;;;7377143;19;20022;-67
2023/05/22 08:08:52;;;;;;;22.25;20.15;;;18.00;99.90;;;;;;7375528;19;20014;-68
2023/05/22 08:11:18;;;;;;;21.40;19.30;;;18.00;99.90;;;;;;7375231;19;20113;-67
2023/05/22 08:13:44;;;;;;;21.73;19.77;;;18.10;99.90;;;;;;7368363;19;20043;-60
2023/05/22 08:16:11;;;;;;;21.13;19.13;;;18.00;99.90;;;;;;7372618;19;21186;-68
2023/05/22 08:18:38;;;;;;;21.38;19.35;;;18.00;99.90;;;;;;7376178;19;20018;-67
2023/05/22 08:21:04;;;;;;;21.25;19.15;;;18.10;99.90;;;;;;7373803;19;20531;-68
2023/05/22 08:23:31;;;;;;;21.48;19.10;;;18.00;99.90;;;;;;7377429;19;20019;-67
2023/05/22 08:25:57;;;;;;;22.30;20.10;;;18.00;99.90;;;;;;7373220;19;20018;-68
2023/05/22 08:28:24;;;;;;;22.05;19.70;;;18.10;99.90;;;;;;7376540;19;20023;-68
2023/05/22 08:30:54;;;;;;;22.50;18.45;;;18.10;99.90;;;;;;7375242;19;20014;-67
2023/05/22 08:33:21;;;;;;;21.90;19.50;;;18.20;99.90;;;;;;7375341;19;20494;-67
2023/05/22 08:35:47;;;;;;;20.58;18.55;;;18.20;99.90;;;;;;7373333;19;20608;-67
2023/05/22 08:38:16;;;;;;;20.30;18.42;;;18.20;99.90;;;;;;7373093;19;20015;-68
2023/05/22 08:40:50;;;;;;;22.48;20.08;;;18.40;99.90;;;;;;7370393;19;20026;-68
2023/05/22 08:43:20;;;;;;;19.48;17.40;;;18.60;99.90;;;;;;7372343;19;20480;-61
2023/05/22 08:45:58;;;;;;;20.60;18.58;;;18.70;99.90;;;;;;7366236;19;20029;-60
2023/05/22 08:48:31;;;;;;;26.13;16.88;;;19.00;99.90;;;;;;7369989;19;20019;-61
2023/05/22 08:51:07;;;;;;;21.58;18.35;;;19.10;99.90;;;;;;7360483;19;20836;-61
2023/05/22 08:53:35;;;;;;;18.52;16.55;;;19.40;99.90;;;;;;7369600;19;20015;-61
2023/05/22 08:56:06;;;;;;;18.10;15.68;;;19.60;99.90;;;;;;7369673;19;20033;-61
2023/05/22 08:58:34;;;;;;;20.15;15.93;;;19.80;99.90;;;;;;7373498;19;20182;-60
2023/05/22 09:01:02;;;;;;;18.40;15.07;;;19.70;99.90;;;;;;7375822;19;20343;-60
2023/05/22 09:03:33;;;;;;;26.48;17.45;;;19.70;99.90;;;;;;7376806;19;20034;-64
2023/05/22 09:06:02;;;;;;;20.13;15.40;;;19.90;99.90;;;;;;7379424;19;20028;-61
2023/05/22 09:08:28;;;;;;;23.70;17.13;;;19.90;99.90;;;;;;7380272;19;20115;-61
2023/05/22 09:10:55;;;;;;;19.23;16.00;;;19.70;99.90;;;;;;7370614;19;20551;-61
2023/05/22 09:13:27;;;;;;;21.13;16.15;;;19.80;99.90;;;;;;7379561;19;20038;-61
2023/05/22 09:16:13;;;;;;;20.77;12.65;;;19.80;99.90;;;;;;7377644;19;20414;-61
2023/05/22 09:18:41;;;;;;;24.48;17.75;;;19.80;99.90;;;;;;7374402;19;20556;-62
2023/05/22 09:21:09;;;;;;;18.45;12.75;;;19.80;99.90;;;;;;7377559;19;20035;-69
2023/05/22 09:23:36;;;;;;;21.13;13.90;;;20.00;99.90;;;;;;7375567;19;20374;-70
2023/05/22 09:26:06;;;;;;;17.83;12.38;;;20.00;99.90;;;;;;7369754;19;20332;-64
2023/05/22 09:28:36;;;;;;;18.17;13.00;;;20.40;99.90;;;;;;7377931;19;20022;-67
2023/05/22 09:31:04;;;;;;;18.30;12.60;;;20.70;99.90;;;;;;7379804;19;20025;-61
2023/05/22 09:33:32;;;;;;;17.98;11.40;;;20.70;99.90;;;;;;7378475;19;20017;-61
2023/05/22 09:35:59;;;;;;;19.55;11.50;;;21.00;99.90;;;;;;7378081;19;20709;-61
2023/05/22 09:38:27;;;;;;;19.50;11.32;;;21.10;99.90;;;;;;7380273;19;20029;-61
2023/05/22 09:40:54;;;;;;;18.92;13.23;;;21.20;99.90;;;;;;7377377;19;20022;-61
2023/05/22 09:43:24;;;;;;;23.30;13.02;;;21.00;99.90;;;;;;7378253;19;20030;-61
2023/05/22 09:46:03;;;;;;;21.75;16.52;;;21.20;99.90;;;;;;7379076;19;20026;-61
2023/05/22 09:48:35;;;;;;;18.83;13.18;;;21.20;99.90;;;;;;7378116;19;20011;-61
2023/05/22 09:51:03;;;;;;;18.13;12.45;;;21.50;99.90;;;;;;7377776;19;20006;-60
2023/05/22 09:53:31;;;;;;;19.42;15.90;;;21.70;99.90;;;;;;7377895;19;20636;-60
2023/05/22 09:55:59;;;;;;;21.48;12.20;;;22.00;99.90;;;;;;7377096;19;20047;-60
2023/05/22 09:58:30;;;;;;;19.52;11.25;;;21.90;99.90;;;;;;7378475;19;20022;-59
2023/05/22 10:00:57;;;;;;;20.45;16.50;;;21.90;99.90;;;;;;7379178;19;20025;-59
2023/05/22 10:03:25;;;;;;;23.92;15.43;;;21.80;99.90;;;;;;7376731;19;20473;-59
2023/05/22 10:05:54;;;;;;;19.95;11.50;;;22.20;99.90;;;;;;7376028;19;20035;-59
2023/05/22 10:08:30;;;;;;;19.63;11.52;;;22.80;99.90;;;;;;7375872;19;20088;-59
2023/05/22 10:10:57;;;;;;;28.30;22.63;;;23.40;99.90;;;;;;7374421;19;20026;-61
2023/05/22 10:13:25;;;;;;;17.95;12.55;;;24.10;99.90;;;;;;7378054;19;20047;-68
2023/05/22 10:15:52;;;;;;;23.63;16.77;;;24.20;99.90;;;;;;7386571;19;20020;-67
2023/05/22 10:18:18;;;;;;;18.98;14.00;;;24.90;99.90;;;;;;7386104;19;20465;-67
2023/05/22 10:20:48;;;;;;;16.73;11.60;;;25.10;99.90;;;;;;7382072;19;20018;-67
2023/05/22 10:23:17;;;;;;;19.40;16.52;;;25.80;99.90;;;;;;7379965;19;20041;-67
2023/05/22 10:25:47;;;;;;;25.92;19.83;;;26.20;99.90;;;;;;7373629;19;20078;-66
2023/05/22 10:28:29;;;;;;;22.27;19.27;;;26.30;99.90;;;;;;7381520;19;20022;-67
2023/05/22 10:31:12;;;;;;;19.15;13.05;;;26.50;99.90;;;;;;7373230;19;20387;-66
2023/05/22 10:34:06;;;;;;;19.98;15.70;;;26.80;99.90;;;;;;7371620;19;20437;-60
2023/05/22 10:36:41;;;;;;;17.48;14.25;;;26.90;99.90;;;;;;7376603;19;20044;-60
2023/05/22 10:39:39;;;;;;;15.02;12.15;;;27.10;99.90;;;;;;7374730;19;20030;-61
2023/05/22 10:42:12;;;;;;;25.70;18.27;;;27.00;97.70;;;;;;7369988;19;20677;-60
2023/05/22 10:44:39;;;;;;;15.48;11.80;;;26.80;99.90;;;;;;7369800;19;20609;-60
2023/05/22 10:47:10;;;;;;;20.42;14.45;;;26.70;99.90;;;;;;7370860;19;20018;-61
2023/05/22 10:49:37;;;;;;;14.40;10.07;;;26.70;99.90;;;;;;7370091;19;20015;-60
2023/05/22 10:52:04;;;;;;;14.95;10.90;;;26.50;99.90;;;;;;7369256;19;20043;-60
2023/05/22 10:54:44;;;;;;;17.83;11.70;;;26.70;99.90;;;;;;7374364;19;20026;-61
2023/05/22 10:57:15;;;;;;;13.57;11.40;;;27.10;99.30;;;;;;7373350;19;20023;-61
2023/05/22 10:59:42;;;;;;;18.52;12.85;;;27.20;99.90;;;;;;7372319;19;20019;-67
2023/05/22 11:02:30;;;;;;;19.17;14.18;;;27.10;99.90;;;;;;7372131;19;20043;-67
2023/05/22 11:05:17;;;;;;;16.92;14.40;;;27.70;95.00;;;;;;7372787;19;20034;-67
2023/05/22 11:07:44;;;;;;;18.45;16.55;;;27.70;80.40;;;;;;7373239;19;20011;-66
2023/05/22 11:10:10;;;;;;;22.98;18.95;;;27.60;97.00;;;;;;7374909;19;20028;-62
2023/05/22 11:12:36;;;;;;;15.90;13.93;;;28.00;95.20;;;;;;7375123;19;20023;-66
2023/05/22 11:15:08;;;;;;;15.55;11.77;;;28.30;90.50;;;;;;7372202;19;20057;-67
2023/05/22 11:17:38;;;;;;;;;;;28.30;90.30;;;;;;7374152;19;20043;-67
2023/05/22 11:20:19;;;;;;;13.55;11.25;;;28.10;74.00;;;;;;7366883;19;19946;-68
2023/05/22 11:23:00;;;;;;;14.63;11.50;;;28.50;73.80;;;;;;7364675;19;20022;-67
2023/05/22 11:25:27;;;;;;;14.73;11.32;;;28.40;76.10;;;;;;7371736;19;20018;-68
2023/05/22 11:27:54;;;;;;;16.17;12.38;;;28.80;77.10;;;;;;7364783;19;20086;-68
2023/05/22 11:30:25;;;;;;;19.92;18.00;;;28.50;74.60;;;;;;7367193;19;20018;-68
2023/05/22 11:32:52;;;;;;;18.45;15.98;;;28.50;71.50;;;;;;7368907;19;20108;-67
2023/05/22 11:35:21;;;;;;;13.43;11.75;;;28.60;78.10;;;;;;7369110;19;20052;-68
2023/05/22 11:37:49;;;;;;;23.45;21.05;;;29.10;71.20;;;;;;7366182;19;20026;-67
2023/05/22 11:40:17;;;;;;;16.35;14.63;;;28.60;75.50;;;;;;7367361;19;20026;-67
2023/05/22 11:42:43;;;;;;;20.30;18.25;;;28.80;70.60;;;;;;7366955;19;20074;-67
2023/05/22 11:45:10;;;;;;;15.48;13.98;;;29.30;69.10;;;;;;7368169;19;20453;-67
2023/05/22 11:47:37;;;;;;;13.25;11.85;;;29.70;66.10;;;;;;7371210;19;20497;-67
2023/05/22 11:50:05;;;;;;;17.52;14.73;;;29.30;64.70;;;;;;7364715;19;20381;-67
2023/05/22 11:52:32;;;;;;;15.52;13.93;;;29.50;63.10;;;;;;7365548;19;20023;-67
2023/05/22 11:54:59;;;;;;;23.17;20.90;;;29.70;66.90;;;;;;7374782;19;20022;-68
2023/05/22 11:57:26;;;;;;;22.88;20.67;;;29.60;65.80;;;;;;7370309;19;20030;-67
2023/05/22 11:59:52;;;;;;;19.52;17.50;;;29.80;65.10;;;;;;7369742;19;20580;-67
2023/05/22 12:02:19;;;;;;;23.50;17.60;;;29.80;65.90;;;;;;7364501;19;20397;-67
2023/05/22 12:04:45;;;;;;;18.75;14.10;;;30.10;65.10;;;;;;7367846;19;20019;-67
2023/05/22 12:07:12;;;;;;;15.90;12.90;;;30.50;62.90;;;;;;7369867;19;20022;-66
2023/05/22 12:09:39;;;;;;;20.30;18.20;;;30.30;61.50;;;;;;7369013;19;20028;-67
2023/05/22 12:12:08;;;;;;;16.95;15.10;;;30.10;61.90;;;;;;7365675;19;20051;-67
2023/05/22 12:14:34;;;;;;;15.38;13.82;;;29.80;60.90;;;;;;7368373;19;20107;-67
2023/05/22 12:17:03;;;;;;;17.17;15.13;;;30.00;59.50;;;;;;7370728;19;20138;-69
2023/05/22 12:19:29;;;;;;;28.80;25.77;;;30.50;59.50;;;;;;7372531;19;20006;-67
2023/05/22 12:21:57;;;;;;;15.35;13.63;;;30.80;59.50;;;;;;7367239;19;20022;-67
2023/05/22 12:24:23;;;;;;;15.63;14.20;;;30.50;58.80;;;;;;7365022;19;20062;-67
2023/05/22 12:26:50;;;;;;;14.38;12.85;;;30.30;57.30;;;;;;7361935;19;20339;-67
2023/05/22 12:29:17;;;;;;;12.93;11.18;;;30.00;57.70;;;;;;7364683;19;20014;-67
2023/05/22 12:31:47;;;;;;;27.60;24.48;;;30.30;58.10;;;;;;7358665;19;20023;-67
2023/05/22 12:34:15;;;;;;;14.45;12.95;;;31.10;57.40;;;;;;7367157;19;20029;-67
2023/05/22 12:36:46;;;;;;;13.77;12.57;;;31.30;55.00;;;;;;7370335;19;20591;-67
2023/05/22 12:39:16;;;;;;;12.88;10.80;;;31.70;54.40;;;;;;7374917;19;20371;-67
2023/05/22 12:41:44;;;;;;;12.25;11.05;;;31.60;52.50;;;;;;7368767;19;20018;-67